sensor_id;sensor_type;location;lat;lon;timestamp;temperature;humidity
10123;DHT22;5101;49.038;8.710;2022-11-30T00:01:38;8.80;99.90
10123;DHT22;5101;49.038;8.710;2022-11-30T00:04:03;8.70;99.90
10123;DHT22;5101;49.038;8.710;2022-11-30T00:06:29;8.70;99.90
10123;DHT22;5101;49.038;8.710;2022-11-30T00:08:56;8.70;99.90
10123;DHT22;5101;49.038;8.710;2022-11-30T00:11:23;8.60;99.90
10123;DHT22;5101;49.038;8.710;2022-11-30T00:13:49;8.70;99.90
10123;DHT22;5101;49.038;8.710;2022-11-30T00:16:15;8.70;99.90
10123;DHT22;5101;49.038;8.710;2022-11-30T00:18:40;8.70;99.90
10123;DHT22;5101;49.038;8.710;2022-11-30T00:21:07;8.70;99.90
10123;DHT22;5101;49.038;8.710;2022-11-30T00:23:36;8.70;99.90
10123;DHT22;5101;49.038;8.710;2022-11-30T00:26:04;8.70;99.90
10123;DHT22;5101;49.038;8.710;2022-11-30T00:28:31;8.70;99.90
10123;DHT22;5101;49.038;8.710;2022-11-30T00:31:02;8.70;99.90
10123;DHT22;5101;49.038;8.710;2022-11-30T00:33:28;8.70;99.90
10123;DHT22;5101;49.038;8.710;2022-11-30T00:36:01;8.70;99.90
10123;DHT22;5101;49.038;8.710;2022-11-30T00:38:27;8.80;99.90
10123;DHT22;5101;49.038;8.710;2022-11-30T00:40:53;8.70;99.90
10123;DHT22;5101;49.038;8.710;2022-11-30T00:43:19;8.70;99.90
10123;DHT22;5101;49.038;8.710;2022-11-30T00:45:45;8.80;99.90
10123;DHT22;5101;49.038;8.710;2022-11-30T00:48:10;8.80;99.90
10123;DHT22;5101;49.038;8.710;2022-11-30T00:50:36;8.70;99.90
10123;DHT22;5101;49.038;8.710;2022-11-30T00:53:01;8.70;99.90
10123;DHT22;5101;49.038;8.710;2022-11-30T00:55:27;8.70;99.90
10123;DHT22;5101;49.038;8.710;2022-11-30T00:57:52;8.70;99.90
10123;DHT22;5101;49.038;8.710;2022-11-30T01:00:18;8.70;99.90
10123;DHT22;5101;49.038;8.710;2022-11-30T01:02:44;8.70;99.90
10123;DHT22;5101;49.038;8.710;2022-11-30T01:05:10;8.70;99.90
10123;DHT22;5101;49.038;8.710;2022-11-30T01:07:35;8.70;99.90
10123;DHT22;5101;49.038;8.710;2022-11-30T01:10:01;8.70;99.90
10123;DHT22;5101;49.038;8.710;2022-11-30T01:12:27;8.60;99.90
10123;DHT22;5101;49.038;8.710;2022-11-30T01:14:52;8.60;99.90
10123;DHT22;5101;49.038;8.710;2022-11-30T01:17:18;8.60;99.90
10123;DHT22;5101;49.038;8.710;2022-11-30T01:19:43;8.70;99.90
10123;DHT22;5101;49.038;8.710;2022-11-30T01:22:09;8.70;99.90
10123;DHT22;5101;49.038;8.710;2022-11-30T01:24:34;8.70;99.90
10123;DHT22;5101;49.038;8.710;2022-11-30T01:27:00;8.60;99.90
10123;DHT22;5101;49.038;8.710;2022-11-30T01:29:25;8.60;99.90
10123;DHT22;5101;49.038;8.710;2022-11-30T01:31:50;8.60;99.90
10123;DHT22;5101;49.038;8.710;2022-11-30T01:34:16;8.70;99.90
10123;DHT22;5101;49.038;8.710;2022-11-30T01:36:42;8.70;99.90
10123;DHT22;5101;49.038;8.710;2022-11-30T01:39:08;8.70;99.90
10123;DHT22;5101;49.038;8.710;2022-11-30T01:41:35;8.70;99.90
10123;DHT22;5101;49.038;8.710;2022-11-30T01:46:44;8.70;99.90
10123;DHT22;5101;49.038;8.710;2022-11-30T01:51:49;8.70;99.90
10123;DHT22;5101;49.038;8.710;2022-11-30T01:54:17;8.70;99.90
10123;DHT22;5101;49.038;8.710;2022-11-30T01:56:59;8.70;99.90
10123;DHT22;5101;49.038;8.710;2022-11-30T01:59:27;8.70;99.90
10123;DHT22;5101;49.038;8.710;2022-11-30T02:01:53;8.70;99.90
10123;DHT22;5101;49.038;8.710;2022-11-30T02:04:29;8.70;99.90
10123;DHT22;5101;49.038;8.710;2022-11-30T02:06:56;8.70;99.90
10123;DHT22;5101;49.038;8.710;2022-11-30T02:09:23;8.70;99.90
10123;DHT22;5101;49.038;8.710;2022-11-30T02:11:50;8.70;99.90
10123;DHT22;5101;49.038;8.710;2022-11-30T02:14:23;8.70;99.90
10123;DHT22;5101;49.038;8.710;2022-11-30T02:23:13;8.70;99.90
10123;DHT22;5101;49.038;8.710;2022-11-30T02:25:55;8.70;99.90
10123;DHT22;5101;49.038;8.710;2022-11-30T02:28:54;8.70;99.90
10123;DHT22;5101;49.038;8.710;2022-11-30T02:31:27;8.70;99.90
10123;DHT22;5101;49.038;8.710;2022-11-30T02:33:56;8.70;99.90
10123;DHT22;5101;49.038;8.710;2022-11-30T02:36:23;8.70;99.90
10123;DHT22;5101;49.038;8.710;2022-11-30T02:38:49;8.70;99.90
10123;DHT22;5101;49.038;8.710;2022-11-30T02:41:15;8.70;99.90
10123;DHT22;5101;49.038;8.710;2022-11-30T02:43:40;8.70;99.90
10123;DHT22;5101;49.038;8.710;2022-11-30T02:46:22;8.90;99.90
10123;DHT22;5101;49.038;8.710;2022-11-30T02:49:05;8.70;99.90
10123;DHT22;5101;49.038;8.710;2022-11-30T02:51:33;8.70;99.90
10123;DHT22;5101;49.038;8.710;2022-11-30T02:53:59;8.70;99.90
10123;DHT22;5101;49.038;8.710;2022-11-30T02:56:25;8.70;99.90
10123;DHT22;5101;49.038;8.710;2022-11-30T02:58:50;8.70;99.90
10123;DHT22;5101;49.038;8.710;2022-11-30T03:01:17;8.70;99.90
10123;DHT22;5101;49.038;8.710;2022-11-30T03:03:42;8.70;99.90
10123;DHT22;5101;49.038;8.710;2022-11-30T03:06:09;8.70;99.90
10123;DHT22;5101;49.038;8.710;2022-11-30T03:08:35;8.70;99.90
10123;DHT22;5101;49.038;8.710;2022-11-30T03:11:02;8.70;99.90
10123;DHT22;5101;49.038;8.710;2022-11-30T03:13:32;8.60;99.90
10123;DHT22;5101;49.038;8.710;2022-11-30T03:16:03;8.60;99.90
10123;DHT22;5101;49.038;8.710;2022-11-30T03:18:30;8.60;99.90
10123;DHT22;5101;49.038;8.710;2022-11-30T03:20:56;8.60;99.90
10123;DHT22;5101;49.038;8.710;2022-11-30T03:23:21;8.60;99.90
10123;DHT22;5101;49.038;8.710;2022-11-30T03:25:47;8.50;99.90
10123;DHT22;5101;49.038;8.710;2022-11-30T03:28:12;8.50;99.90
10123;DHT22;5101;49.038;8.710;2022-11-30T03:30:38;8.60;99.90
10123;DHT22;5101;49.038;8.710;2022-11-30T03:33:03;8.60;99.90
10123;DHT22;5101;49.038;8.710;2022-11-30T03:35:29;8.60;99.90
10123;DHT22;5101;49.038;8.710;2022-11-30T03:37:54;8.60;99.90
10123;DHT22;5101;49.038;8.710;2022-11-30T03:40:20;8.60;99.90
10123;DHT22;5101;49.038;8.710;2022-11-30T03:42:45;8.50;99.90
10123;DHT22;5101;49.038;8.710;2022-11-30T03:45:11;8.40;99.90
10123;DHT22;5101;49.038;8.710;2022-11-30T03:47:36;8.50;99.90
10123;DHT22;5101;49.038;8.710;2022-11-30T03:50:02;8.50;99.90
10123;DHT22;5101;49.038;8.710;2022-11-30T03:52:27;8.70;99.90
10123;DHT22;5101;49.038;8.710;2022-11-30T03:54:53;8.50;99.90
10123;DHT22;5101;49.038;8.710;2022-11-30T03:57:18;8.50;99.90
10123;DHT22;5101;49.038;8.710;2022-11-30T03:59:44;8.50;99.90
10123;DHT22;5101;49.038;8.710;2022-11-30T04:02:09;8.50;99.90
10123;DHT22;5101;49.038;8.710;2022-11-30T04:04:35;8.50;99.90
10123;DHT22;5101;49.038;8.710;2022-11-30T04:07:00;8.40;99.90
10123;DHT22;5101;49.038;8.710;2022-11-30T04:09:26;8.50;99.90
10123;DHT22;5101;49.038;8.710;2022-11-30T04:11:51;8.50;99.90
10123;DHT22;5101;49.038;8.710;2022-11-30T04:14:17;8.50;99.90
10123;DHT22;5101;49.038;8.710;2022-11-30T04:16:42;8.50;99.90
10123;DHT22;5101;49.038;8.710;2022-11-30T04:19:08;8.50;99.90
10123;DHT22;5101;49.038;8.710;2022-11-30T04:21:33;8.40;99.90
10123;DHT22;5101;49.038;8.710;2022-11-30T04:23:59;8.50;99.90
10123;DHT22;5101;49.038;8.710;2022-11-30T04:26:24;8.50;99.90
10123;DHT22;5101;49.038;8.710;2022-11-30T04:28:50;8.50;99.90
10123;DHT22;5101;49.038;8.710;2022-11-30T04:31:15;8.50;99.90
10123;DHT22;5101;49.038;8.710;2022-11-30T04:33:41;8.50;99.90
10123;DHT22;5101;49.038;8.710;2022-11-30T04:36:12;8.40;99.90
10123;DHT22;5101;49.038;8.710;2022-11-30T04:38:39;8.40;99.90
10123;DHT22;5101;49.038;8.710;2022-11-30T04:41:06;8.40;99.90
10123;DHT22;5101;49.038;8.710;2022-11-30T04:43:32;8.40;99.90
10123;DHT22;5101;49.038;8.710;2022-11-30T04:45:57;8.40;99.90
10123;DHT22;5101;49.038;8.710;2022-11-30T04:48:23;8.40;99.90
10123;DHT22;5101;49.038;8.710;2022-11-30T04:50:48;8.30;99.90
10123;DHT22;5101;49.038;8.710;2022-11-30T04:53:14;8.30;99.90
10123;DHT22;5101;49.038;8.710;2022-11-30T04:55:39;8.30;99.90
10123;DHT22;5101;49.038;8.710;2022-11-30T04:58:05;8.30;99.90
10123;DHT22;5101;49.038;8.710;2022-11-30T05:00:31;8.30;99.90
10123;DHT22;5101;49.038;8.710;2022-11-30T05:02:57;8.30;99.90
10123;DHT22;5101;49.038;8.710;2022-11-30T05:05:23;8.40;99.90
10123;DHT22;5101;49.038;8.710;2022-11-30T05:07:56;8.40;99.90
10123;DHT22;5101;49.038;8.710;2022-11-30T05:10:22;8.40;99.90
10123;DHT22;5101;49.038;8.710;2022-11-30T05:12:48;8.40;99.90
10123;DHT22;5101;49.038;8.710;2022-11-30T05:15:15;8.40;99.90
10123;DHT22;5101;49.038;8.710;2022-11-30T05:17:40;8.40;99.90
10123;DHT22;5101;49.038;8.710;2022-11-30T05:20:06;8.40;99.90
10123;DHT22;5101;49.038;8.710;2022-11-30T05:22:32;8.30;99.90
10123;DHT22;5101;49.038;8.710;2022-11-30T05:24:59;8.30;99.90
10123;DHT22;5101;49.038;8.710;2022-11-30T05:27:25;8.30;99.90
10123;DHT22;5101;49.038;8.710;2022-11-30T05:29:50;8.20;99.90
10123;DHT22;5101;49.038;8.710;2022-11-30T05:32:16;8.20;99.90
10123;DHT22;5101;49.038;8.710;2022-11-30T05:34:42;8.20;99.90
10123;DHT22;5101;49.038;8.710;2022-11-30T05:37:07;8.20;99.90
10123;DHT22;5101;49.038;8.710;2022-11-30T05:39:33;8.10;99.90
10123;DHT22;5101;49.038;8.710;2022-11-30T05:41:58;8.10;99.90
10123;DHT22;5101;49.038;8.710;2022-11-30T05:44:24;8.30;99.90
10123;DHT22;5101;49.038;8.710;2022-11-30T05:46:49;8.10;99.90
10123;DHT22;5101;49.038;8.710;2022-11-30T05:49:15;8.10;99.90
10123;DHT22;5101;49.038;8.710;2022-11-30T05:51:40;8.10;99.90
10123;DHT22;5101;49.038;8.710;2022-11-30T05:54:06;8.10;99.90
10123;DHT22;5101;49.038;8.710;2022-11-30T05:56:31;8.40;99.90
10123;DHT22;5101;49.038;8.710;2022-11-30T05:58:57;8.20;99.90
10123;DHT22;5101;49.038;8.710;2022-11-30T06:01:25;8.20;99.90
10123;DHT22;5101;49.038;8.710;2022-11-30T06:03:51;8.10;99.90
10123;DHT22;5101;49.038;8.710;2022-11-30T06:06:17;8.10;99.90
10123;DHT22;5101;49.038;8.710;2022-11-30T06:08:44;8.10;99.90
10123;DHT22;5101;49.038;8.710;2022-11-30T06:11:10;8.10;99.90
10123;DHT22;5101;49.038;8.710;2022-11-30T06:13:36;8.00;99.90
10123;DHT22;5101;49.038;8.710;2022-11-30T06:16:02;8.00;99.90
10123;DHT22;5101;49.038;8.710;2022-11-30T06:18:28;8.00;99.90
10123;DHT22;5101;49.038;8.710;2022-11-30T06:20:54;7.80;99.90
10123;DHT22;5101;49.038;8.710;2022-11-30T06:23:19;7.80;99.90
10123;DHT22;5101;49.038;8.710;2022-11-30T06:25:45;7.80;99.90
10123;DHT22;5101;49.038;8.710;2022-11-30T06:28:10;7.80;99.90
10123;DHT22;5101;49.038;8.710;2022-11-30T06:30:36;7.80;99.90
10123;DHT22;5101;49.038;8.710;2022-11-30T06:33:02;7.70;99.90
10123;DHT22;5101;49.038;8.710;2022-11-30T06:35:28;7.70;99.90
10123;DHT22;5101;49.038;8.710;2022-11-30T06:37:53;7.70;99.90
10123;DHT22;5101;49.038;8.710;2022-11-30T06:40:19;7.60;99.90
10123;DHT22;5101;49.038;8.710;2022-11-30T06:42:45;7.60;99.90
10123;DHT22;5101;49.038;8.710;2022-11-30T06:45:10;7.70;99.90
10123;DHT22;5101;49.038;8.710;2022-11-30T06:47:36;7.70;99.90
10123;DHT22;5101;49.038;8.710;2022-11-30T06:50:02;7.70;99.90
10123;DHT22;5101;49.038;8.710;2022-11-30T06:52:32;7.80;99.90
10123;DHT22;5101;49.038;8.710;2022-11-30T06:54:57;7.80;99.90
10123;DHT22;5101;49.038;8.710;2022-11-30T06:57:29;7.70;99.90
10123;DHT22;5101;49.038;8.710;2022-11-30T06:59:55;7.70;99.90
10123;DHT22;5101;49.038;8.710;2022-11-30T07:02:21;7.60;99.90
10123;DHT22;5101;49.038;8.710;2022-11-30T07:04:47;7.70;99.90
10123;DHT22;5101;49.038;8.710;2022-11-30T07:07:13;7.70;99.90
10123;DHT22;5101;49.038;8.710;2022-11-30T07:09:38;7.70;99.90
10123;DHT22;5101;49.038;8.710;2022-11-30T07:12:04;7.80;99.90
10123;DHT22;5101;49.038;8.710;2022-11-30T07:14:30;7.80;99.90
10123;DHT22;5101;49.038;8.710;2022-11-30T07:16:56;7.80;99.90
10123;DHT22;5101;49.038;8.710;2022-11-30T07:19:22;7.90;99.90
10123;DHT22;5101;49.038;8.710;2022-11-30T07:21:47;8.00;99.90
10123;DHT22;5101;49.038;8.710;2022-11-30T07:24:13;7.80;99.90
10123;DHT22;5101;49.038;8.710;2022-11-30T07:26:59;7.80;99.90
10123;DHT22;5101;49.038;8.710;2022-11-30T07:29:25;7.80;99.90
10123;DHT22;5101;49.038;8.710;2022-11-30T07:31:51;7.80;99.90
10123;DHT22;5101;49.038;8.710;2022-11-30T07:34:17;7.80;99.90
10123;DHT22;5101;49.038;8.710;2022-11-30T07:36:43;7.80;99.90
10123;DHT22;5101;49.038;8.710;2022-11-30T07:39:09;7.90;99.90
10123;DHT22;5101;49.038;8.710;2022-11-30T07:41:34;7.90;99.90
10123;DHT22;5101;49.038;8.710;2022-11-30T07:44:00;7.90;99.90
10123;DHT22;5101;49.038;8.710;2022-11-30T07:46:25;7.90;99.90
10123;DHT22;5101;49.038;8.710;2022-11-30T07:48:51;7.90;99.90
10123;DHT22;5101;49.038;8.710;2022-11-30T07:51:20;7.90;99.90
10123;DHT22;5101;49.038;8.710;2022-11-30T07:53:47;7.90;99.90
10123;DHT22;5101;49.038;8.710;2022-11-30T07:56:15;7.90;99.90
10123;DHT22;5101;49.038;8.710;2022-11-30T07:58:42;7.80;99.90
10123;DHT22;5101;49.038;8.710;2022-11-30T08:01:12;7.80;99.90
10123;DHT22;5101;49.038;8.710;2022-11-30T08:03:38;7.70;99.90
10123;DHT22;5101;49.038;8.710;2022-11-30T08:06:09;7.70;99.90
10123;DHT22;5101;49.038;8.710;2022-11-30T08:08:40;7.70;99.90
10123;DHT22;5101;49.038;8.710;2022-11-30T08:11:08;7.80;99.90
10123;DHT22;5101;49.038;8.710;2022-11-30T08:13:34;7.80;99.90
10123;DHT22;5101;49.038;8.710;2022-11-30T08:16:05;7.80;99.90
10123;DHT22;5101;49.038;8.710;2022-11-30T08:18:31;7.90;99.90
10123;DHT22;5101;49.038;8.710;2022-11-30T08:21:01;7.90;99.90
10123;DHT22;5101;49.038;8.710;2022-11-30T08:23:31;7.90;99.90
10123;DHT22;5101;49.038;8.710;2022-11-30T08:26:04;7.90;99.90
10123;DHT22;5101;49.038;8.710;2022-11-30T08:28:31;7.90;99.90
10123;DHT22;5101;49.038;8.710;2022-11-30T08:31:04;7.80;99.90
10123;DHT22;5101;49.038;8.710;2022-11-30T08:33:31;7.80;99.90
10123;DHT22;5101;49.038;8.710;2022-11-30T08:38:37;7.70;99.90
10123;DHT22;5101;49.038;8.710;2022-11-30T08:41:03;7.80;99.90
10123;DHT22;5101;49.038;8.710;2022-11-30T08:43:29;7.90;99.90
10123;DHT22;5101;49.038;8.710;2022-11-30T08:45:55;7.90;99.90
10123;DHT22;5101;49.038;8.710;2022-11-30T08:48:21;7.90;99.90
10123;DHT22;5101;49.038;8.710;2022-11-30T08:50:46;8.00;99.90
10123;DHT22;5101;49.038;8.710;2022-11-30T08:53:12;8.00;99.90
10123;DHT22;5101;49.038;8.710;2022-11-30T08:55:37;8.00;99.90
10123;DHT22;5101;49.038;8.710;2022-11-30T08:58:03;8.10;99.90
10123;DHT22;5101;49.038;8.710;2022-11-30T09:00:28;8.10;99.90
10123;DHT22;5101;49.038;8.710;2022-11-30T09:02:55;8.10;99.90
10123;DHT22;5101;49.038;8.710;2022-11-30T09:05:20;8.20;99.90
10123;DHT22;5101;49.038;8.710;2022-11-30T09:07:46;8.20;99.90
10123;DHT22;5101;49.038;8.710;2022-11-30T09:10:11;8.20;99.90
10123;DHT22;5101;49.038;8.710;2022-11-30T09:12:38;8.20;99.90
10123;DHT22;5101;49.038;8.710;2022-11-30T09:15:06;8.10;99.90
10123;DHT22;5101;49.038;8.710;2022-11-30T09:17:32;8.10;99.90
10123;DHT22;5101;49.038;8.710;2022-11-30T09:19:58;8.10;99.90
10123;DHT22;5101;49.038;8.710;2022-11-30T09:22:23;8.10;99.90
10123;DHT22;5101;49.038;8.710;2022-11-30T09:24:49;8.10;99.90
10123;DHT22;5101;49.038;8.710;2022-11-30T09:27:15;8.10;99.90
10123;DHT22;5101;49.038;8.710;2022-11-30T09:29:40;8.10;99.90
10123;DHT22;5101;49.038;8.710;2022-11-30T09:32:05;8.10;99.90
10123;DHT22;5101;49.038;8.710;2022-11-30T09:34:31;8.20;99.90
10123;DHT22;5101;49.038;8.710;2022-11-30T09:36:57;8.30;99.90
10123;DHT22;5101;49.038;8.710;2022-11-30T09:39:22;8.30;99.90
10123;DHT22;5101;49.038;8.710;2022-11-30T09:44:28;8.30;99.90
10123;DHT22;5101;49.038;8.710;2022-11-30T09:47:09;8.30;99.90
10123;DHT22;5101;49.038;8.710;2022-11-30T09:49:43;8.40;99.90
10123;DHT22;5101;49.038;8.710;2022-11-30T09:52:19;8.40;99.90
10123;DHT22;5101;49.038;8.710;2022-11-30T09:54:47;8.30;99.90
10123;DHT22;5101;49.038;8.710;2022-11-30T09:57:28;8.40;99.90
10123;DHT22;5101;49.038;8.710;2022-11-30T09:59:59;8.50;99.90
10123;DHT22;5101;49.038;8.710;2022-11-30T10:02:30;8.50;99.90
10123;DHT22;5101;49.038;8.710;2022-11-30T10:04:56;8.40;99.90
10123;DHT22;5101;49.038;8.710;2022-11-30T10:10:28;8.40;99.90
10123;DHT22;5101;49.038;8.710;2022-11-30T10:13:01;8.50;99.90
10123;DHT22;5101;49.038;8.710;2022-11-30T10:15:53;8.50;99.90
10123;DHT22;5101;49.038;8.710;2022-11-30T10:18:45;8.50;99.90
10123;DHT22;5101;49.038;8.710;2022-11-30T10:21:36;8.50;99.90
10123;DHT22;5101;49.038;8.710;2022-11-30T10:26:57;8.50;99.90
10123;DHT22;5101;49.038;8.710;2022-11-30T10:29:35;8.50;99.90
10123;DHT22;5101;49.038;8.710;2022-11-30T10:32:19;8.60;99.90
10123;DHT22;5101;49.038;8.710;2022-11-30T10:34:48;8.60;99.90
10123;DHT22;5101;49.038;8.710;2022-11-30T10:37:26;8.60;99.90
10123;DHT22;5101;49.038;8.710;2022-11-30T10:40:02;8.70;99.90
10123;DHT22;5101;49.038;8.710;2022-11-30T10:42:33;8.90;99.90
10123;DHT22;5101;49.038;8.710;2022-11-30T10:45:10;9.00;99.90
10123;DHT22;5101;49.038;8.710;2022-11-30T10:47:58;9.00;99.90
10123;DHT22;5101;49.038;8.710;2022-11-30T10:50:27;9.00;99.90
10123;DHT22;5101;49.038;8.710;2022-11-30T10:52:56;9.00;99.90
10123;DHT22;5101;49.038;8.710;2022-11-30T10:55:25;9.20;99.90
10123;DHT22;5101;49.038;8.710;2022-11-30T10:57:57;9.20;99.90
10123;DHT22;5101;49.038;8.710;2022-11-30T11:00:23;9.30;99.90
10123;DHT22;5101;49.038;8.710;2022-11-30T11:02:50;9.30;99.90
10123;DHT22;5101;49.038;8.710;2022-11-30T11:05:27;9.40;99.90
10123;DHT22;5101;49.038;8.710;2022-11-30T11:07:58;9.50;99.90
10123;DHT22;5101;49.038;8.710;2022-11-30T11:10:42;9.60;99.90
10123;DHT22;5101;49.038;8.710;2022-11-30T11:13:17;9.60;99.90
10123;DHT22;5101;49.038;8.710;2022-11-30T11:15:57;9.50;99.90
10123;DHT22;5101;49.038;8.710;2022-11-30T11:18:26;9.50;99.90
10123;DHT22;5101;49.038;8.710;2022-11-30T11:23:38;9.60;99.90
10123;DHT22;5101;49.038;8.710;2022-11-30T11:26:23;9.60;99.90
10123;DHT22;5101;49.038;8.710;2022-11-30T11:28:51;9.70;99.90
10123;DHT22;5101;49.038;8.710;2022-11-30T11:31:34;9.50;99.90
10123;DHT22;5101;49.038;8.710;2022-11-30T11:34:01;9.40;99.90
10123;DHT22;5101;49.038;8.710;2022-11-30T11:36:32;9.50;99.90
10123;DHT22;5101;49.038;8.710;2022-11-30T11:38:58;9.50;99.90
10123;DHT22;5101;49.038;8.710;2022-11-30T11:41:30;9.50;99.90
10123;DHT22;5101;49.038;8.710;2022-11-30T11:46:38;9.60;99.90
10123;DHT22;5101;49.038;8.710;2022-11-30T11:49:25;9.50;99.90
10123;DHT22;5101;49.038;8.710;2022-11-30T11:52:03;9.40;99.90
10123;DHT22;5101;49.038;8.710;2022-11-30T11:54:39;9.40;99.90
10123;DHT22;5101;49.038;8.710;2022-11-30T11:57:12;9.40;99.90
10123;DHT22;5101;49.038;8.710;2022-11-30T12:00:02;9.40;99.90
10123;DHT22;5101;49.038;8.710;2022-11-30T12:02:55;9.40;99.90
10123;DHT22;5101;49.038;8.710;2022-11-30T12:10:54;9.30;99.90
10123;DHT22;5101;49.038;8.710;2022-11-30T12:13:25;9.30;99.90
10123;DHT22;5101;49.038;8.710;2022-11-30T12:16:31;9.30;99.90
10123;DHT22;5101;49.038;8.710;2022-11-30T12:22:18;9.20;99.90
10123;DHT22;5101;49.038;8.710;2022-11-30T12:24:32;9.20;99.90
10123;DHT22;5101;49.038;8.710;2022-11-30T12:27:19;9.30;99.90
10123;DHT22;5101;49.038;8.710;2022-11-30T12:30:03;9.30;99.90
10123;DHT22;5101;49.038;8.710;2022-11-30T12:38:41;9.20;99.90
10123;DHT22;5101;49.038;8.710;2022-11-30T12:40:58;9.10;99.90
10123;DHT22;5101;49.038;8.710;2022-11-30T12:43:34;9.10;99.90
10123;DHT22;5101;49.038;8.710;2022-11-30T12:52:12;9.20;99.90
10123;DHT22;5101;49.038;8.710;2022-11-30T12:57:48;9.20;99.90
10123;DHT22;5101;49.038;8.710;2022-11-30T13:00:22;9.20;99.90
10123;DHT22;5101;49.038;8.710;2022-11-30T13:03:00;9.20;99.90
10123;DHT22;5101;49.038;8.710;2022-11-30T13:05:56;9.20;99.90
10123;DHT22;5101;49.038;8.710;2022-11-30T13:08:29;9.20;99.90
10123;DHT22;5101;49.038;8.710;2022-11-30T13:11:06;9.20;99.90
10123;DHT22;5101;49.038;8.710;2022-11-30T13:13:34;9.30;99.90
10123;DHT22;5101;49.038;8.710;2022-11-30T13:16:03;9.30;99.90
10123;DHT22;5101;49.038;8.710;2022-11-30T13:18:30;9.20;99.90
10123;DHT22;5101;49.038;8.710;2022-11-30T13:21:12;9.20;99.90
10123;DHT22;5101;49.038;8.710;2022-11-30T13:23:46;9.20;99.90
10123;DHT22;5101;49.038;8.710;2022-11-30T13:26:53;9.20;99.90
10123;DHT22;5101;49.038;8.710;2022-11-30T13:29:45;9.10;99.90
10123;DHT22;5101;49.038;8.710;2022-11-30T13:32:14;9.20;99.90
10123;DHT22;5101;49.038;8.710;2022-11-30T13:34:41;9.20;99.90
10123;DHT22;5101;49.038;8.710;2022-11-30T13:37:07;9.20;99.90
10123;DHT22;5101;49.038;8.710;2022-11-30T13:47:38;9.20;99.90
10123;DHT22;5101;49.038;8.710;2022-11-30T14:05:48;9.20;99.90
10123;DHT22;5101;49.038;8.710;2022-11-30T14:17:03;9.30;99.90
10123;DHT22;5101;49.038;8.710;2022-11-30T14:19:29;9.30;99.90
10123;DHT22;5101;49.038;8.710;2022-11-30T14:21:55;9.30;99.90
10123;DHT22;5101;49.038;8.710;2022-11-30T14:24:22;9.30;99.90
10123;DHT22;5101;49.038;8.710;2022-11-30T14:26:49;9.30;99.90
10123;DHT22;5101;49.038;8.710;2022-11-30T14:29:17;9.30;99.90
10123;DHT22;5101;49.038;8.710;2022-11-30T14:34:34;9.30;99.90
10123;DHT22;5101;49.038;8.710;2022-11-30T14:37:03;9.40;99.90
10123;DHT22;5101;49.038;8.710;2022-11-30T14:39:35;9.40;99.90
10123;DHT22;5101;49.038;8.710;2022-11-30T14:42:04;9.30;99.90
10123;DHT22;5101;49.038;8.710;2022-11-30T14:44:34;9.30;99.90
10123;DHT22;5101;49.038;8.710;2022-11-30T14:47:23;9.40;99.90
10123;DHT22;5101;49.038;8.710;2022-11-30T14:49:51;9.40;99.90
10123;DHT22;5101;49.038;8.710;2022-11-30T15:00:41;9.40;99.90
10123;DHT22;5101;49.038;8.710;2022-11-30T15:03:24;9.40;99.90
10123;DHT22;5101;49.038;8.710;2022-11-30T15:05:59;9.40;99.90
10123;DHT22;5101;49.038;8.710;2022-11-30T15:08:35;9.30;99.90
10123;DHT22;5101;49.038;8.710;2022-11-30T15:11:06;9.40;99.90
10123;DHT22;5101;49.038;8.710;2022-11-30T15:13:38;9.40;99.90
10123;DHT22;5101;49.038;8.710;2022-11-30T15:16:18;9.40;99.90
10123;DHT22;5101;49.038;8.710;2022-11-30T15:18:45;9.40;99.90
10123;DHT22;5101;49.038;8.710;2022-11-30T15:23:46;9.30;99.90
10123;DHT22;5101;49.038;8.710;2022-11-30T15:26:26;9.20;99.90
10123;DHT22;5101;49.038;8.710;2022-11-30T15:29:12;9.10;99.90
10123;DHT22;5101;49.038;8.710;2022-11-30T15:31:44;9.10;99.90
10123;DHT22;5101;49.038;8.710;2022-11-30T15:34:18;9.00;99.90
10123;DHT22;5101;49.038;8.710;2022-11-30T15:36:45;9.00;99.90
10123;DHT22;5101;49.038;8.710;2022-11-30T15:39:18;8.80;99.90
10123;DHT22;5101;49.038;8.710;2022-11-30T15:41:45;8.80;99.90
10123;DHT22;5101;49.038;8.710;2022-11-30T15:44:40;8.70;99.90
10123;DHT22;5101;49.038;8.710;2022-11-30T15:47:23;8.60;99.90
10123;DHT22;5101;49.038;8.710;2022-11-30T15:49:53;8.50;99.90
10123;DHT22;5101;49.038;8.710;2022-11-30T15:52:19;8.60;99.90
10123;DHT22;5101;49.038;8.710;2022-11-30T15:54:54;8.50;99.90
10123;DHT22;5101;49.038;8.710;2022-11-30T15:57:21;8.50;99.90
10123;DHT22;5101;49.038;8.710;2022-11-30T16:02:37;8.50;99.90
10123;DHT22;5101;49.038;8.710;2022-11-30T16:07:35;8.50;99.90
10123;DHT22;5101;49.038;8.710;2022-11-30T16:10:14;8.50;99.90
10123;DHT22;5101;49.038;8.710;2022-11-30T16:12:41;8.50;99.90
10123;DHT22;5101;49.038;8.710;2022-11-30T16:15:42;8.50;99.90
10123;DHT22;5101;49.038;8.710;2022-11-30T16:18:22;8.40;99.90
10123;DHT22;5101;49.038;8.710;2022-11-30T16:20:50;8.50;99.90
10123;DHT22;5101;49.038;8.710;2022-11-30T16:23:17;8.50;99.90
10123;DHT22;5101;49.038;8.710;2022-11-30T16:25:44;8.50;99.90
10123;DHT22;5101;49.038;8.710;2022-11-30T16:28:15;8.50;99.90
10123;DHT22;5101;49.038;8.710;2022-11-30T16:30:41;8.50;99.90
10123;DHT22;5101;49.038;8.710;2022-11-30T16:35:50;8.60;99.90
10123;DHT22;5101;49.038;8.710;2022-11-30T16:38:18;8.60;99.90
10123;DHT22;5101;49.038;8.710;2022-11-30T16:40:44;8.60;99.90
10123;DHT22;5101;49.038;8.710;2022-11-30T16:43:10;8.50;99.90
10123;DHT22;5101;49.038;8.710;2022-11-30T16:45:37;8.40;99.90
10123;DHT22;5101;49.038;8.710;2022-11-30T16:48:03;8.30;99.90
10123;DHT22;5101;49.038;8.710;2022-11-30T16:50:29;8.30;99.90
10123;DHT22;5101;49.038;8.710;2022-11-30T16:52:57;8.20;99.90
10123;DHT22;5101;49.038;8.710;2022-11-30T16:55:27;8.20;99.90
10123;DHT22;5101;49.038;8.710;2022-11-30T16:57:53;8.20;99.90
10123;DHT22;5101;49.038;8.710;2022-11-30T17:00:20;8.10;99.90
10123;DHT22;5101;49.038;8.710;2022-11-30T17:02:55;8.10;99.90
10123;DHT22;5101;49.038;8.710;2022-11-30T17:05:22;8.10;99.90
10123;DHT22;5101;49.038;8.710;2022-11-30T17:07:48;8.00;99.90
10123;DHT22;5101;49.038;8.710;2022-11-30T17:10:13;8.00;99.90
10123;DHT22;5101;49.038;8.710;2022-11-30T17:12:39;8.00;99.90
10123;DHT22;5101;49.038;8.710;2022-11-30T17:15:05;8.00;99.90
10123;DHT22;5101;49.038;8.710;2022-11-30T17:17:31;7.90;99.90
10123;DHT22;5101;49.038;8.710;2022-11-30T17:19:56;7.90;99.90
10123;DHT22;5101;49.038;8.710;2022-11-30T17:22:22;7.90;99.90
10123;DHT22;5101;49.038;8.710;2022-11-30T17:24:47;7.90;99.90
10123;DHT22;5101;49.038;8.710;2022-11-30T17:27:13;7.90;99.90
10123;DHT22;5101;49.038;8.710;2022-11-30T17:29:38;7.80;99.90
10123;DHT22;5101;49.038;8.710;2022-11-30T17:32:04;7.80;99.90
10123;DHT22;5101;49.038;8.710;2022-11-30T17:34:30;7.80;99.90
10123;DHT22;5101;49.038;8.710;2022-11-30T17:36:55;7.80;99.90
10123;DHT22;5101;49.038;8.710;2022-11-30T17:39:22;7.90;99.90
10123;DHT22;5101;49.038;8.710;2022-11-30T17:41:48;7.90;99.90
10123;DHT22;5101;49.038;8.710;2022-11-30T17:44:14;7.80;99.90
10123;DHT22;5101;49.038;8.710;2022-11-30T17:46:39;7.90;99.90
10123;DHT22;5101;49.038;8.710;2022-11-30T17:49:05;7.90;99.90
10123;DHT22;5101;49.038;8.710;2022-11-30T17:51:30;7.80;99.90
10123;DHT22;5101;49.038;8.710;2022-11-30T17:53:56;7.80;99.90
10123;DHT22;5101;49.038;8.710;2022-11-30T17:56:22;8.00;99.90
10123;DHT22;5101;49.038;8.710;2022-11-30T17:58:48;7.80;99.90
10123;DHT22;5101;49.038;8.710;2022-11-30T18:01:25;7.80;99.90